createdAt,value
2022-09-30T00:03:41.624Z,15.90
2022-09-30T00:18:42.291Z,15.20
2022-09-30T00:33:42.363Z,14.60
2022-09-30T00:48:42.485Z,11.30
2022-09-30T01:03:42.593Z,9.80
2022-09-30T01:18:42.703Z,12.10
2022-09-30T01:33:42.842Z,11.40
2022-09-30T01:48:42.917Z,10.60
2022-09-30T02:03:43.067Z,11.80
2022-09-30T02:18:43.141Z,12.70
2022-09-30T02:33:43.821Z,11.50
2022-09-30T02:48:43.900Z,13.30
2022-09-30T03:03:44.030Z,10.70
2022-09-30T03:18:44.115Z,18.00
2022-09-30T03:33:44.282Z,14.30
2022-09-30T03:48:44.375Z,13.70
2022-09-30T04:03:44.497Z,14.50
2022-09-30T04:18:44.580Z,15.50
2022-09-30T04:33:44.672Z,13.70
2022-09-30T04:48:44.789Z,20.50
2022-09-30T05:03:44.889Z,19.80
2022-09-30T05:18:44.995Z,19.40
2022-09-30T05:33:45.149Z,21.30
2022-09-30T05:48:45.309Z,26.80
2022-09-30T06:03:46.326Z,26.80
2022-09-30T06:18:46.458Z,28.40
2022-09-30T06:33:47.843Z,30.20
2022-09-30T06:48:47.967Z,37.80
2022-09-30T07:03:51.482Z,31.50
2022-09-30T07:18:53.164Z,19.40
2022-09-30T07:33:53.341Z,15.40
2022-09-30T07:48:53.448Z,14.00
2022-09-30T08:03:53.537Z,14.40
2022-09-30T08:18:53.705Z,12.60
2022-09-30T08:33:53.787Z,12.10
2022-09-30T08:48:53.917Z,11.20
2022-09-30T09:03:53.968Z,10.00
2022-09-30T09:18:54.123Z,12.00
2022-09-30T09:33:54.206Z,9.00
2022-09-30T09:48:54.297Z,7.10
2022-09-30T10:03:54.590Z,6.50
2022-09-30T10:18:54.720Z,9.30
2022-09-30T10:33:54.608Z,5.50
2022-09-30T10:48:54.730Z,4.70
2022-09-30T11:03:54.989Z,4.40
2022-09-30T11:18:55.056Z,3.80
2022-09-30T11:33:55.034Z,4.90
2022-09-30T11:48:55.155Z,2.60
2022-09-30T12:03:55.408Z,2.90
2022-09-30T12:18:55.586Z,2.80
2022-09-30T12:33:55.662Z,2.20
2022-09-30T12:48:55.801Z,1.70
2022-09-30T13:03:55.890Z,2.00
2022-09-30T13:18:55.986Z,1.40
2022-09-30T13:33:56.054Z,2.60
2022-09-30T13:48:56.157Z,1.50
2022-09-30T14:03:56.341Z,8.40
2022-09-30T14:18:56.443Z,2.00
2022-09-30T14:33:56.444Z,3.00
2022-09-30T14:48:56.587Z,1.50
2022-09-30T15:03:56.621Z,9.30
2022-09-30T15:18:56.757Z,3.40
2022-09-30T15:33:56.804Z,1.40
2022-09-30T15:48:56.905Z,1.90
2022-09-30T16:03:57.022Z,2.20
2022-09-30T16:18:57.197Z,3.30
2022-09-30T16:33:57.221Z,3.90
2022-09-30T16:48:57.302Z,2.90
2022-09-30T17:03:57.404Z,3.50
2022-09-30T17:18:57.539Z,5.20
2022-09-30T17:33:57.574Z,3.70
2022-09-30T17:48:57.713Z,5.80
2022-09-30T18:03:57.807Z,6.10
2022-09-30T18:18:58.007Z,7.90
2022-09-30T18:33:58.009Z,9.20
2022-09-30T18:48:58.216Z,58.80
2022-09-30T19:03:58.301Z,29.60
2022-09-30T19:18:58.454Z,24.90
2022-09-30T19:34:00.684Z,25.00
2022-09-30T19:49:00.904Z,13.40
2022-09-30T20:04:00.963Z,15.80
2022-09-30T20:19:02.566Z,13.60
2022-09-30T20:34:02.521Z,13.20
2022-09-30T20:49:02.618Z,14.70
2022-09-30T21:04:02.701Z,14.30
2022-09-30T21:19:02.856Z,12.70
2022-09-30T21:34:03.028Z,13.70
2022-09-30T21:49:03.197Z,14.50
2022-09-30T22:04:03.738Z,14.10
2022-09-30T22:19:04.031Z,15.10
2022-09-30T22:34:03.939Z,16.80
2022-09-30T22:49:04.098Z,19.10
2022-09-30T23:04:04.360Z,17.10
2022-09-30T23:19:04.432Z,16.50
2022-09-30T23:34:04.506Z,15.50
2022-09-30T23:49:05.136Z,14.00
